sensor_id;sensor_type;location;lat;lon;timestamp;pressure;altitude;pressure_sealevel;temperature;humidity
59829;BME280;45708;51.848;107.620;2023-05-10T00:02:01;94442.41;;;12.41;30.23
59829;BME280;45708;51.848;107.620;2023-05-10T00:07:02;94449.50;;;12.57;29.96
59829;BME280;45708;51.848;107.620;2023-05-10T00:12:03;94438.19;;;12.84;29.17
59829;BME280;45708;51.848;107.620;2023-05-10T00:17:03;94442.34;;;13.23;28.83
59829;BME280;45708;51.848;107.620;2023-05-10T00:22:04;94422.94;;;13.82;28.08
59829;BME280;45708;51.848;107.620;2023-05-10T00:27:05;94438.75;;;14.09;27.81
59829;BME280;45708;51.848;107.620;2023-05-10T00:32:06;94442.53;;;14.18;27.54
59829;BME280;45708;51.848;107.620;2023-05-10T00:37:07;94424.78;;;14.81;27.10
59829;BME280;45708;51.848;107.620;2023-05-10T00:42:07;94415.06;;;16.24;25.88
59829;BME280;45708;51.848;107.620;2023-05-10T00:47:09;94420.59;;;16.37;24.70
59829;BME280;45708;51.848;107.620;2023-05-10T00:52:10;94422.25;;;15.32;25.32
59829;BME280;45708;51.848;107.620;2023-05-10T00:57:11;94422.97;;;14.86;26.26
59829;BME280;45708;51.848;107.620;2023-05-10T01:02:12;94423.06;;;15.22;26.04
59829;BME280;45708;51.848;107.620;2023-05-10T01:07:12;94437.19;;;15.43;25.49
59829;BME280;45708;51.848;107.620;2023-05-10T01:12:14;94428.16;;;15.85;25.08
59829;BME280;45708;51.848;107.620;2023-05-10T01:17:16;94426.56;;;15.89;25.03
59829;BME280;45708;51.848;107.620;2023-05-10T01:28:07;94445.75;;;15.65;24.94
59829;BME280;45708;51.848;107.620;2023-05-10T01:33:21;94446.50;;;15.45;25.51
59829;BME280;45708;51.848;107.620;2023-05-10T01:43:48;94448.81;;;15.21;25.86
59829;BME280;45708;51.848;107.620;2023-05-10T01:48:55;94445.91;;;15.18;25.70
59829;BME280;45708;51.848;107.620;2023-05-10T01:54:01;94456.03;;;15.41;26.03
59829;BME280;45708;51.848;107.620;2023-05-10T01:59:11;94452.13;;;16.05;25.05
59829;BME280;45708;51.848;107.620;2023-05-10T02:04:16;94452.94;;;15.85;25.06
59829;BME280;45708;51.848;107.620;2023-05-10T02:09:17;94441.44;;;15.49;25.78
59829;BME280;45708;51.848;107.620;2023-05-10T02:14:19;94450.53;;;15.63;25.88
59829;BME280;45708;51.848;107.620;2023-05-10T02:19:22;94448.91;;;16.08;25.07
59829;BME280;45708;51.848;107.620;2023-05-10T02:24:24;94437.63;;;16.52;24.89
59829;BME280;45708;51.848;107.620;2023-05-10T02:29:27;94416.97;;;17.37;24.42
59829;BME280;45708;51.848;107.620;2023-05-10T02:34:29;94417.84;;;17.67;24.19
59829;BME280;45708;51.848;107.620;2023-05-10T02:39:31;94418.03;;;18.09;24.17
59829;BME280;45708;51.848;107.620;2023-05-10T02:44:34;94407.00;;;18.45;24.57
59829;BME280;45708;51.848;107.620;2023-05-10T02:49:36;94401.00;;;18.53;25.32
59829;BME280;45708;51.848;107.620;2023-05-10T02:54:44;94409.53;;;19.03;25.28
59829;BME280;45708;51.848;107.620;2023-05-10T02:59:46;94402.31;;;19.22;26.58
59829;BME280;45708;51.848;107.620;2023-05-10T03:04:46;94404.41;;;19.25;27.37
59829;BME280;45708;51.848;107.620;2023-05-10T03:09:51;94397.78;;;19.74;27.34
59829;BME280;45708;51.848;107.620;2023-05-10T03:15:10;94391.16;;;20.18;27.20
59829;BME280;45708;51.848;107.620;2023-05-10T03:20:24;94385.66;;;20.55;27.15
59829;BME280;45708;51.848;107.620;2023-05-10T03:25:26;94379.47;;;20.41;28.25
59829;BME280;45708;51.848;107.620;2023-05-10T03:30:28;94361.63;;;20.50;28.43
59829;BME280;45708;51.848;107.620;2023-05-10T03:35:29;94373.72;;;20.89;28.33
59829;BME280;45708;51.848;107.620;2023-05-10T03:40:30;94354.84;;;21.16;28.07
59829;BME280;45708;51.848;107.620;2023-05-10T03:45:31;94369.13;;;21.03;28.64
59829;BME280;45708;51.848;107.620;2023-05-10T03:50:32;94358.81;;;20.83;29.48
59829;BME280;45708;51.848;107.620;2023-05-10T03:55:33;94352.41;;;20.92;29.15
59829;BME280;45708;51.848;107.620;2023-05-10T04:00:33;94352.13;;;20.94;29.25
59829;BME280;45708;51.848;107.620;2023-05-10T04:05:34;94354.97;;;20.48;30.14
59829;BME280;45708;51.848;107.620;2023-05-10T04:10:35;94343.44;;;20.47;29.89
59829;BME280;45708;51.848;107.620;2023-05-10T04:15:36;94346.06;;;21.38;28.92
59829;BME280;45708;51.848;107.620;2023-05-10T04:20:37;94335.06;;;21.71;28.52
59829;BME280;45708;51.848;107.620;2023-05-10T04:25:37;94345.13;;;21.88;28.48
59829;BME280;45708;51.848;107.620;2023-05-10T04:30:38;94333.47;;;21.25;29.54
59829;BME280;45708;51.848;107.620;2023-05-10T04:35:39;94326.09;;;21.17;30.12
59829;BME280;45708;51.848;107.620;2023-05-10T04:40:40;94309.03;;;20.99;30.66
59829;BME280;45708;51.848;107.620;2023-05-10T04:45:40;94300.63;;;21.28;30.17
59829;BME280;45708;51.848;107.620;2023-05-10T04:50:41;94301.25;;;21.11;30.45
59829;BME280;45708;51.848;107.620;2023-05-10T04:55:44;94294.72;;;20.54;31.00
59829;BME280;45708;51.848;107.620;2023-05-10T05:00:45;94294.81;;;20.35;31.65
59829;BME280;45708;51.848;107.620;2023-05-10T05:05:46;94282.50;;;20.07;31.96
59829;BME280;45708;51.848;107.620;2023-05-10T05:10:48;94281.03;;;20.28;32.02
59829;BME280;45708;51.848;107.620;2023-05-10T05:15:48;94261.25;;;20.24;31.87
59829;BME280;45708;51.848;107.620;2023-05-10T05:20:49;94262.19;;;20.83;31.30
59829;BME280;45708;51.848;107.620;2023-05-10T05:25:53;94266.34;;;21.11;30.76
59829;BME280;45708;51.848;107.620;2023-05-10T05:30:55;94263.06;;;21.14;31.00
59829;BME280;45708;51.848;107.620;2023-05-10T05:35:56;94243.88;;;21.52;29.75
59829;BME280;45708;51.848;107.620;2023-05-10T05:40:57;94249.59;;;21.28;30.14
59829;BME280;45708;51.848;107.620;2023-05-10T05:45:57;94252.63;;;21.35;30.02
59829;BME280;45708;51.848;107.620;2023-05-10T05:50:58;94242.19;;;21.34;30.05
59829;BME280;45708;51.848;107.620;2023-05-10T05:55:59;94208.25;;;21.69;29.79
59829;BME280;45708;51.848;107.620;2023-05-10T06:01:00;94226.84;;;21.88;29.37
59829;BME280;45708;51.848;107.620;2023-05-10T06:06:01;94226.31;;;21.46;29.64
59829;BME280;45708;51.848;107.620;2023-05-10T06:11:01;94225.91;;;21.30;29.80
59829;BME280;45708;51.848;107.620;2023-05-10T06:16:02;94225.53;;;21.45;29.61
59829;BME280;45708;51.848;107.620;2023-05-10T06:21:03;94225.59;;;21.32;30.22
59829;BME280;45708;51.848;107.620;2023-05-10T06:26:04;94219.91;;;21.11;30.57
59829;BME280;45708;51.848;107.620;2023-05-10T06:31:06;94209.59;;;21.49;29.90
59829;BME280;45708;51.848;107.620;2023-05-10T06:36:07;94204.16;;;21.71;30.52
59829;BME280;45708;51.848;107.620;2023-05-10T06:41:07;94203.13;;;21.90;29.44
59829;BME280;45708;51.848;107.620;2023-05-10T06:46:08;94165.59;;;22.41;27.86
59829;BME280;45708;51.848;107.620;2023-05-10T06:51:09;94173.38;;;22.43;28.49
59829;BME280;45708;51.848;107.620;2023-05-10T06:56:11;94177.16;;;22.76;27.43
59829;BME280;45708;51.848;107.620;2023-05-10T07:01:12;94182.72;;;22.97;26.86
59829;BME280;45708;51.848;107.620;2023-05-10T07:06:13;94170.34;;;23.14;26.53
59829;BME280;45708;51.848;107.620;2023-05-10T07:11:13;94164.03;;;22.49;26.76
59829;BME280;45708;51.848;107.620;2023-05-10T07:16:14;94175.91;;;21.82;27.18
59829;BME280;45708;51.848;107.620;2023-05-10T07:21:15;94157.69;;;21.79;27.10
59829;BME280;45708;51.848;107.620;2023-05-10T07:26:16;94173.50;;;22.29;26.79
59829;BME280;45708;51.848;107.620;2023-05-10T07:31:17;94176.66;;;22.31;26.62
59829;BME280;45708;51.848;107.620;2023-05-10T07:36:17;94161.22;;;21.97;27.05
59829;BME280;45708;51.848;107.620;2023-05-10T07:41:18;94156.94;;;21.88;27.36
59829;BME280;45708;51.848;107.620;2023-05-10T07:46:19;94161.88;;;22.03;27.67
59829;BME280;45708;51.848;107.620;2023-05-10T07:51:20;94157.69;;;22.28;27.25
59829;BME280;45708;51.848;107.620;2023-05-10T07:56:25;94162.28;;;22.36;27.28
59829;BME280;45708;51.848;107.620;2023-05-10T08:01:26;94150.06;;;22.21;27.56
59829;BME280;45708;51.848;107.620;2023-05-10T08:06:30;94158.75;;;22.09;27.65
59829;BME280;45708;51.848;107.620;2023-05-10T08:11:31;94151.13;;;22.03;27.54
59829;BME280;45708;51.848;107.620;2023-05-10T08:16:32;94151.94;;;22.12;27.33
59829;BME280;45708;51.848;107.620;2023-05-10T08:21:33;94147.88;;;22.40;26.90
59829;BME280;45708;51.848;107.620;2023-05-10T08:26:33;94144.94;;;22.02;25.88
59829;BME280;45708;51.848;107.620;2023-05-10T08:31:34;94134.88;;;22.08;25.60
59829;BME280;45708;51.848;107.620;2023-05-10T08:36:35;94136.31;;;22.23;25.75
59829;BME280;45708;51.848;107.620;2023-05-10T08:41:39;94141.84;;;22.26;25.85
59829;BME280;45708;51.848;107.620;2023-05-10T08:46:41;94117.97;;;22.25;26.25
59829;BME280;45708;51.848;107.620;2023-05-10T08:51:52;94124.59;;;22.27;26.61
59829;BME280;45708;51.848;107.620;2023-05-10T08:56:54;94123.13;;;22.04;26.32
59829;BME280;45708;51.848;107.620;2023-05-10T09:01:59;94113.81;;;22.10;26.60
59829;BME280;45708;51.848;107.620;2023-05-10T09:07:00;94109.25;;;22.28;26.11
59829;BME280;45708;51.848;107.620;2023-05-10T09:12:01;94118.13;;;22.28;26.22
59829;BME280;45708;51.848;107.620;2023-05-10T09:17:02;94103.78;;;22.02;27.51
59829;BME280;45708;51.848;107.620;2023-05-10T09:22:03;94115.16;;;21.33;28.80
59829;BME280;45708;51.848;107.620;2023-05-10T09:27:04;94123.00;;;20.76;29.57
59829;BME280;45708;51.848;107.620;2023-05-10T09:32:05;94123.16;;;20.35;29.90
59829;BME280;45708;51.848;107.620;2023-05-10T09:37:06;94121.84;;;20.10;30.42
59829;BME280;45708;51.848;107.620;2023-05-10T09:42:08;94130.56;;;20.16;30.83
59829;BME280;45708;51.848;107.620;2023-05-10T09:47:09;94119.28;;;20.05;31.78
59829;BME280;45708;51.848;107.620;2023-05-10T09:52:10;94137.56;;;19.62;32.78
59829;BME280;45708;51.848;107.620;2023-05-10T09:57:20;94143.09;;;19.24;33.33
59829;BME280;45708;51.848;107.620;2023-05-10T10:02:28;94154.16;;;18.71;34.70
59829;BME280;45708;51.848;107.620;2023-05-10T10:07:29;94180.47;;;18.45;35.27
59829;BME280;45708;51.848;107.620;2023-05-10T10:12:30;94177.91;;;18.16;35.65
59829;BME280;45708;51.848;107.620;2023-05-10T10:17:31;94185.34;;;18.01;35.97
59829;BME280;45708;51.848;107.620;2023-05-10T10:22:33;94210.84;;;17.69;36.50
59829;BME280;45708;51.848;107.620;2023-05-10T10:38:09;94199.22;;;16.68;38.43
59829;BME280;45708;51.848;107.620;2023-05-10T10:43:28;94213.66;;;16.57;38.34
59829;BME280;45708;51.848;107.620;2023-05-10T10:48:29;94211.84;;;16.47;39.02
59829;BME280;45708;51.848;107.620;2023-05-10T10:53:30;94203.66;;;16.33;38.82
59829;BME280;45708;51.848;107.620;2023-05-10T10:58:32;94234.03;;;16.37;38.98
59829;BME280;45708;51.848;107.620;2023-05-10T11:03:33;94225.22;;;16.42;38.89
59829;BME280;45708;51.848;107.620;2023-05-10T11:08:41;94232.38;;;16.41;38.75
59829;BME280;45708;51.848;107.620;2023-05-10T11:13:44;94221.28;;;16.29;39.42
59829;BME280;45708;51.848;107.620;2023-05-10T11:19:07;94213.84;;;16.21;39.18
59829;BME280;45708;51.848;107.620;2023-05-10T11:24:14;94206.00;;;15.96;39.91
59829;BME280;45708;51.848;107.620;2023-05-10T11:29:15;94206.06;;;15.80;39.99
59829;BME280;45708;51.848;107.620;2023-05-10T11:34:28;94199.19;;;15.69;40.19
59829;BME280;45708;51.848;107.620;2023-05-10T11:39:31;94205.31;;;15.55;40.29
59829;BME280;45708;51.848;107.620;2023-05-10T11:44:32;94206.72;;;15.42;40.67
59829;BME280;45708;51.848;107.620;2023-05-10T11:49:33;94209.91;;;15.34;40.84
59829;BME280;45708;51.848;107.620;2023-05-10T11:54:34;94219.50;;;15.25;40.88
59829;BME280;45708;51.848;107.620;2023-05-10T11:59:36;94222.44;;;15.08;41.39
59829;BME280;45708;51.848;107.620;2023-05-10T12:04:37;94228.56;;;14.98;41.63
59829;BME280;45708;51.848;107.620;2023-05-10T12:09:43;94229.63;;;14.92;41.55
59829;BME280;45708;51.848;107.620;2023-05-10T12:14:50;94233.06;;;14.57;42.07
59829;BME280;45708;51.848;107.620;2023-05-10T12:19:51;94247.09;;;14.32;42.57
59829;BME280;45708;51.848;107.620;2023-05-10T12:24:51;94249.75;;;14.37;42.20
59829;BME280;45708;51.848;107.620;2023-05-10T12:29:52;94251.31;;;14.23;42.46
59829;BME280;45708;51.848;107.620;2023-05-10T12:34:53;94253.13;;;14.12;42.43
59829;BME280;45708;51.848;107.620;2023-05-10T12:39:54;94257.56;;;13.91;42.83
59829;BME280;45708;51.848;107.620;2023-05-10T12:44:56;94254.75;;;13.56;43.40
59829;BME280;45708;51.848;107.620;2023-05-10T12:49:57;94259.41;;;13.38;43.56
59829;BME280;45708;51.848;107.620;2023-05-10T12:54:59;94253.97;;;13.18;44.03
59829;BME280;45708;51.848;107.620;2023-05-10T12:59:59;94238.34;;;12.85;44.59
59829;BME280;45708;51.848;107.620;2023-05-10T13:05:00;94254.25;;;12.85;44.98
59829;BME280;45708;51.848;107.620;2023-05-10T13:10:01;94263.44;;;12.77;45.30
59829;BME280;45708;51.848;107.620;2023-05-10T13:15:02;94257.16;;;12.56;46.17
59829;BME280;45708;51.848;107.620;2023-05-10T13:20:03;94263.47;;;12.50;47.04
59829;BME280;45708;51.848;107.620;2023-05-10T13:25:05;94262.81;;;12.38;47.43
59829;BME280;45708;51.848;107.620;2023-05-10T13:30:07;94270.41;;;12.29;47.59
59829;BME280;45708;51.848;107.620;2023-05-10T13:35:09;94273.28;;;12.23;48.23
59829;BME280;45708;51.848;107.620;2023-05-10T13:40:10;94266.13;;;12.01;47.86
59829;BME280;45708;51.848;107.620;2023-05-10T13:45:11;94273.59;;;11.82;48.55
59829;BME280;45708;51.848;107.620;2023-05-10T13:50:12;94268.63;;;11.69;49.18
59829;BME280;45708;51.848;107.620;2023-05-10T13:55:13;94276.56;;;11.69;48.81
59829;BME280;45708;51.848;107.620;2023-05-10T14:00:14;94281.56;;;11.66;49.79
59829;BME280;45708;51.848;107.620;2023-05-10T14:05:15;94286.69;;;11.55;49.83
59829;BME280;45708;51.848;107.620;2023-05-10T14:10:16;94284.88;;;11.39;50.77
59829;BME280;45708;51.848;107.620;2023-05-10T14:15:17;94279.22;;;11.31;50.40
59829;BME280;45708;51.848;107.620;2023-05-10T14:20:18;94289.41;;;11.22;51.10
59829;BME280;45708;51.848;107.620;2023-05-10T14:25:18;94299.34;;;11.15;51.48
59829;BME280;45708;51.848;107.620;2023-05-10T14:30:19;94296.44;;;11.00;51.52
59829;BME280;45708;51.848;107.620;2023-05-10T14:35:20;94306.25;;;10.82;53.10
59829;BME280;45708;51.848;107.620;2023-05-10T14:40:21;94290.06;;;10.62;53.14
59829;BME280;45708;51.848;107.620;2023-05-10T14:45:22;94289.56;;;10.65;53.94
59829;BME280;45708;51.848;107.620;2023-05-10T14:50:25;94302.22;;;10.63;53.52
59829;BME280;45708;51.848;107.620;2023-05-10T14:55:26;94296.94;;;10.63;53.35
59829;BME280;45708;51.848;107.620;2023-05-10T15:00:28;94295.28;;;10.45;55.00
59829;BME280;45708;51.848;107.620;2023-05-10T15:05:29;94295.97;;;10.41;55.21
59829;BME280;45708;51.848;107.620;2023-05-10T15:10:30;94297.09;;;10.28;55.54
59829;BME280;45708;51.848;107.620;2023-05-10T15:15:31;94305.41;;;10.36;55.19
59829;BME280;45708;51.848;107.620;2023-05-10T15:20:32;94305.69;;;10.52;54.24
59829;BME280;45708;51.848;107.620;2023-05-10T15:25:33;94312.63;;;10.70;54.30
59829;BME280;45708;51.848;107.620;2023-05-10T15:30:34;94308.88;;;10.82;53.47
59829;BME280;45708;51.848;107.620;2023-05-10T15:35:34;94308.63;;;10.84;53.56
59829;BME280;45708;51.848;107.620;2023-05-10T15:40:35;94307.34;;;10.86;53.71
59829;BME280;45708;51.848;107.620;2023-05-10T15:45:36;94310.56;;;10.88;53.15
59829;BME280;45708;51.848;107.620;2023-05-10T15:50:37;94321.13;;;10.88;53.46
59829;BME280;45708;51.848;107.620;2023-05-10T15:55:38;94299.16;;;10.71;54.45
59829;BME280;45708;51.848;107.620;2023-05-10T16:00:39;94307.38;;;10.58;55.22
59829;BME280;45708;51.848;107.620;2023-05-10T16:05:40;94308.19;;;10.58;55.24
59829;BME280;45708;51.848;107.620;2023-05-10T16:10:42;94315.50;;;10.68;55.19
59829;BME280;45708;51.848;107.620;2023-05-10T16:15:43;94313.81;;;10.62;55.42
59829;BME280;45708;51.848;107.620;2023-05-10T16:20:44;94318.91;;;10.52;54.52
59829;BME280;45708;51.848;107.620;2023-05-10T16:25:45;94291.28;;;10.43;55.21
59829;BME280;45708;51.848;107.620;2023-05-10T16:30:46;94302.66;;;10.60;54.87
59829;BME280;45708;51.848;107.620;2023-05-10T16:35:47;94280.56;;;10.49;54.95
59829;BME280;45708;51.848;107.620;2023-05-10T16:40:48;94301.47;;;10.51;54.94
59829;BME280;45708;51.848;107.620;2023-05-10T16:45:49;94315.78;;;10.55;54.99
59829;BME280;45708;51.848;107.620;2023-05-10T16:50:50;94314.81;;;10.44;55.00
59829;BME280;45708;51.848;107.620;2023-05-10T16:55:51;94311.88;;;10.29;56.30
59829;BME280;45708;51.848;107.620;2023-05-10T17:00:51;94320.53;;;10.24;55.85
59829;BME280;45708;51.848;107.620;2023-05-10T17:05:52;94318.91;;;10.12;55.92
59829;BME280;45708;51.848;107.620;2023-05-10T17:10:53;94329.16;;;10.08;56.30
59829;BME280;45708;51.848;107.620;2023-05-10T17:15:54;94310.94;;;9.95;56.89
59829;BME280;45708;51.848;107.620;2023-05-10T17:20:55;94300.19;;;9.85;57.48
59829;BME280;45708;51.848;107.620;2023-05-10T17:25:56;94328.28;;;9.79;57.70
59829;BME280;45708;51.848;107.620;2023-05-10T17:30:57;94339.91;;;9.66;58.59
59829;BME280;45708;51.848;107.620;2023-05-10T17:35:58;94336.31;;;9.61;58.55
59829;BME280;45708;51.848;107.620;2023-05-10T17:40:58;94328.31;;;9.56;58.37
59829;BME280;45708;51.848;107.620;2023-05-10T17:45:59;94337.72;;;9.52;58.97
59829;BME280;45708;51.848;107.620;2023-05-10T17:51:00;94352.59;;;9.58;59.25
59829;BME280;45708;51.848;107.620;2023-05-10T17:56:01;94327.06;;;9.47;59.03
59829;BME280;45708;51.848;107.620;2023-05-10T18:01:02;94346.06;;;9.60;59.18
59829;BME280;45708;51.848;107.620;2023-05-10T18:06:03;94357.53;;;9.54;59.40
59829;BME280;45708;51.848;107.620;2023-05-10T18:11:04;94350.47;;;9.43;60.09
59829;BME280;45708;51.848;107.620;2023-05-10T18:16:06;94334.75;;;9.25;60.77
59829;BME280;45708;51.848;107.620;2023-05-10T18:21:06;94340.81;;;9.13;60.82
59829;BME280;45708;51.848;107.620;2023-05-10T18:26:07;94314.44;;;8.90;61.27
59829;BME280;45708;51.848;107.620;2023-05-10T18:31:08;94319.25;;;8.81;61.70
59829;BME280;45708;51.848;107.620;2023-05-10T18:36:09;94328.38;;;8.79;61.68
59829;BME280;45708;51.848;107.620;2023-05-10T18:41:09;94340.84;;;8.72;62.10
59829;BME280;45708;51.848;107.620;2023-05-10T18:46:10;94326.19;;;8.76;62.03
59829;BME280;45708;51.848;107.620;2023-05-10T18:51:11;94315.53;;;8.71;62.08
59829;BME280;45708;51.848;107.620;2023-05-10T18:56:12;94342.50;;;8.84;62.18
59829;BME280;45708;51.848;107.620;2023-05-10T19:01:13;94332.94;;;8.72;62.63
59829;BME280;45708;51.848;107.620;2023-05-10T19:06:13;94314.59;;;8.53;63.28
59829;BME280;45708;51.848;107.620;2023-05-10T19:11:14;94325.00;;;8.60;62.89
59829;BME280;45708;51.848;107.620;2023-05-10T19:16:15;94332.84;;;8.67;63.46
59829;BME280;45708;51.848;107.620;2023-05-10T19:21:16;94344.19;;;8.79;63.54
59829;BME280;45708;51.848;107.620;2023-05-10T19:26:17;94352.47;;;8.94;62.91
59829;BME280;45708;51.848;107.620;2023-05-10T19:31:19;94330.81;;;8.92;63.30
59829;BME280;45708;51.848;107.620;2023-05-10T19:36:19;94330.13;;;8.85;62.90
59829;BME280;45708;51.848;107.620;2023-05-10T19:41:20;94338.25;;;8.95;62.87
59829;BME280;45708;51.848;107.620;2023-05-10T19:46:21;94338.25;;;8.95;63.32
59829;BME280;45708;51.848;107.620;2023-05-10T19:51:22;94333.00;;;8.95;63.71
59829;BME280;45708;51.848;107.620;2023-05-10T19:56:23;94336.41;;;8.84;64.17
59829;BME280;45708;51.848;107.620;2023-05-10T20:01:24;94347.25;;;8.76;64.67
59829;BME280;45708;51.848;107.620;2023-05-10T20:06:24;94326.72;;;8.54;65.02
59829;BME280;45708;51.848;107.620;2023-05-10T20:11:25;94323.84;;;8.44;66.07
59829;BME280;45708;51.848;107.620;2023-05-10T20:16:26;94328.31;;;8.26;66.98
59829;BME280;45708;51.848;107.620;2023-05-10T20:21:27;94350.44;;;8.36;66.64
59829;BME280;45708;51.848;107.620;2023-05-10T20:26:28;94346.63;;;8.32;67.04
59829;BME280;45708;51.848;107.620;2023-05-10T20:31:28;94339.53;;;8.33;66.66
59829;BME280;45708;51.848;107.620;2023-05-10T20:36:29;94340.34;;;8.33;66.51
59829;BME280;45708;51.848;107.620;2023-05-10T20:41:30;94366.66;;;8.33;66.17
59829;BME280;45708;51.848;107.620;2023-05-10T20:46:31;94351.13;;;8.13;65.56
59829;BME280;45708;51.848;107.620;2023-05-10T20:51:32;94357.09;;;8.20;65.70
59829;BME280;45708;51.848;107.620;2023-05-10T20:56:33;94359.16;;;8.18;65.63
59829;BME280;45708;51.848;107.620;2023-05-10T21:01:34;94369.31;;;8.15;65.52
59829;BME280;45708;51.848;107.620;2023-05-10T21:06:35;94367.59;;;8.09;65.48
59829;BME280;45708;51.848;107.620;2023-05-10T21:11:36;94379.03;;;8.14;65.76
59829;BME280;45708;51.848;107.620;2023-05-10T21:16:36;94380.88;;;8.14;65.53
59829;BME280;45708;51.848;107.620;2023-05-10T21:21:37;94376.06;;;7.92;66.33
59829;BME280;45708;51.848;107.620;2023-05-10T21:26:38;94387.75;;;7.97;67.16
59829;BME280;45708;51.848;107.620;2023-05-10T21:31:39;94406.38;;;7.95;67.29
59829;BME280;45708;51.848;107.620;2023-05-10T21:36:40;94398.78;;;7.87;67.53
59829;BME280;45708;51.848;107.620;2023-05-10T21:41:41;94424.34;;;7.98;67.61
59829;BME280;45708;51.848;107.620;2023-05-10T21:46:41;94441.81;;;8.11;66.76
59829;BME280;45708;51.848;107.620;2023-05-10T21:51:42;94451.41;;;8.23;66.95
59829;BME280;45708;51.848;107.620;2023-05-10T21:56:43;94448.97;;;8.40;66.90
59829;BME280;45708;51.848;107.620;2023-05-10T22:01:44;94440.59;;;8.50;66.23
59829;BME280;45708;51.848;107.620;2023-05-10T22:06:45;94457.06;;;8.75;67.41
59829;BME280;45708;51.848;107.620;2023-05-10T22:11:45;94479.31;;;9.09;67.14
59829;BME280;45708;51.848;107.620;2023-05-10T22:16:46;94467.16;;;9.20;67.09
59829;BME280;45708;51.848;107.620;2023-05-10T22:21:47;94494.06;;;9.52;66.62
59829;BME280;45708;51.848;107.620;2023-05-10T22:26:48;94492.00;;;9.54;65.76
59829;BME280;45708;51.848;107.620;2023-05-10T22:31:49;94496.81;;;9.45;64.83
59829;BME280;45708;51.848;107.620;2023-05-10T22:36:50;94500.50;;;9.44;64.18
59829;BME280;45708;51.848;107.620;2023-05-10T22:41:51;94515.50;;;9.44;63.26
59829;BME280;45708;51.848;107.620;2023-05-10T22:46:52;94448.44;;;8.98;62.19
59829;BME280;45708;51.848;107.620;2023-05-10T22:51:52;94547.31;;;9.31;62.19
59829;BME280;45708;51.848;107.620;2023-05-10T22:56:55;94562.69;;;9.04;62.53
59829;BME280;45708;51.848;107.620;2023-05-10T23:01:56;94567.00;;;8.80;63.15
59829;BME280;45708;51.848;107.620;2023-05-10T23:06:57;94557.06;;;8.64;63.18
59829;BME280;45708;51.848;107.620;2023-05-10T23:11:58;94578.06;;;8.70;62.75
59829;BME280;45708;51.848;107.620;2023-05-10T23:16:58;94551.50;;;8.53;62.16
59829;BME280;45708;51.848;107.620;2023-05-10T23:21:59;94601.66;;;8.59;62.01
59829;BME280;45708;51.848;107.620;2023-05-10T23:27:00;94598.44;;;8.57;62.10
59829;BME280;45708;51.848;107.620;2023-05-10T23:32:01;94631.34;;;8.47;62.03
59829;BME280;45708;51.848;107.620;2023-05-10T23:37:02;94630.66;;;8.34;61.60
59829;BME280;45708;51.848;107.620;2023-05-10T23:42:04;94651.25;;;8.12;62.29
59829;BME280;45708;51.848;107.620;2023-05-10T23:47:05;94665.13;;;8.19;61.78
59829;BME280;45708;51.848;107.620;2023-05-10T23:52:05;94639.75;;;8.06;61.74
59829;BME280;45708;51.848;107.620;2023-05-10T23:57:06;94652.47;;;7.84;62.02
